createdAt,value
2023-03-29T00:00:14.162Z,-1.96
2023-03-29T00:03:03.873Z,-1.97
2023-03-29T00:05:34.903Z,-1.99
2023-03-29T00:08:03.963Z,-2.01
2023-03-29T00:10:33.460Z,-2.02
2023-03-29T00:13:02.170Z,-2.02
2023-03-29T00:15:29.944Z,-2.02
2023-03-29T00:17:58.085Z,-2.02
2023-03-29T00:20:25.832Z,-2.02
2023-03-29T00:22:53.350Z,-2.02
2023-03-29T00:25:20.938Z,-2.02
2023-03-29T00:27:48.535Z,-2.01
2023-03-29T00:30:16.711Z,-2.01
2023-03-29T00:32:44.587Z,-2.00
2023-03-29T00:35:12.659Z,-2.01
2023-03-29T00:37:41.131Z,-2.02
2023-03-29T00:40:11.558Z,-2.02
2023-03-29T00:42:39.274Z,-2.02
2023-03-29T00:45:10.016Z,-2.01
2023-03-29T00:47:47.201Z,-2.01
2023-03-29T00:50:16.481Z,-2.02
2023-03-29T00:52:59.668Z,-2.03
2023-03-29T00:55:32.369Z,-2.02
2023-03-29T00:58:01.122Z,-2.02
2023-03-29T01:00:33.377Z,-2.03
2023-03-29T01:03:05.121Z,-2.04
2023-03-29T01:05:37.958Z,-2.05
2023-03-29T01:08:11.357Z,-2.07
2023-03-29T01:10:43.796Z,-2.09
2023-03-29T01:13:17.605Z,-2.08
2023-03-29T01:15:46.760Z,-2.08
2023-03-29T01:18:14.509Z,-2.09
2023-03-29T01:20:44.895Z,-2.10
2023-03-29T01:23:45.698Z,-2.11
2023-03-29T01:26:45.114Z,-2.13
2023-03-29T01:29:20.882Z,-2.14
2023-03-29T01:31:58.693Z,-2.15
2023-03-29T01:34:42.157Z,-2.16
2023-03-29T01:37:41.200Z,-2.19
2023-03-29T01:40:10.662Z,-2.20
2023-03-29T01:42:54.382Z,-2.21
2023-03-29T01:45:44.494Z,-2.23
2023-03-29T01:48:28.028Z,-2.24
2023-03-29T01:51:07.247Z,-2.27
2023-03-29T01:53:45.457Z,-2.28
2023-03-29T01:56:23.541Z,-2.30
2023-03-29T01:58:58.055Z,-2.31
2023-03-29T02:01:30.041Z,-2.31
2023-03-29T02:04:03.510Z,-2.31
2023-03-29T02:06:34.056Z,-2.31
2023-03-29T02:09:02.554Z,-2.33
2023-03-29T02:11:30.188Z,-2.33
2023-03-29T02:13:57.903Z,-2.34
2023-03-29T02:16:25.445Z,-2.36
2023-03-29T02:18:56.188Z,-2.38
2023-03-29T02:21:32.534Z,-2.39
2023-03-29T02:24:06.450Z,-2.39
2023-03-29T02:26:34.088Z,-2.37
2023-03-29T02:29:01.906Z,-2.37
2023-03-29T02:31:55.217Z,-2.37
2023-03-29T02:34:32.781Z,-2.37
2023-03-29T02:37:06.590Z,-2.39
2023-03-29T02:39:35.759Z,-2.40
2023-03-29T02:42:05.177Z,-2.40
2023-03-29T02:44:37.792Z,-2.42
2023-03-29T02:47:15.958Z,-2.42
2023-03-29T02:49:44.026Z,-2.41
2023-03-29T02:52:16.778Z,-2.41
2023-03-29T02:54:46.501Z,-2.40
2023-03-29T02:57:14.196Z,-2.39
2023-03-29T02:59:44.082Z,-2.42
2023-03-29T03:02:12.258Z,-2.44
2023-03-29T03:04:39.908Z,-2.44
2023-03-29T03:07:07.486Z,-2.46
2023-03-29T03:09:36.321Z,-2.49
2023-03-29T03:12:04.034Z,-2.51
2023-03-29T03:14:31.883Z,-2.53
2023-03-29T03:17:00.657Z,-2.54
2023-03-29T03:19:29.946Z,-2.55
2023-03-29T03:21:57.575Z,-2.56
2023-03-29T03:24:25.207Z,-2.58
2023-03-29T03:26:53.184Z,-2.59
2023-03-29T03:29:20.794Z,-2.61
2023-03-29T03:31:48.916Z,-2.62
2023-03-29T03:34:17.377Z,-2.63
2023-03-29T03:36:47.153Z,-2.63
2023-03-29T03:39:14.677Z,-2.65
2023-03-29T03:41:42.258Z,-2.65
2023-03-29T03:44:09.835Z,-2.66
2023-03-29T03:46:38.097Z,-2.67
2023-03-29T03:49:05.650Z,-2.66
2023-03-29T03:51:33.230Z,-2.71
2023-03-29T03:54:01.033Z,-2.75
2023-03-29T03:56:29.817Z,-2.80
2023-03-29T03:58:57.391Z,-2.82
2023-03-29T04:01:27.122Z,-2.85
2023-03-29T04:03:55.160Z,-2.86
2023-03-29T04:06:22.728Z,-2.85
2023-03-29T04:08:50.519Z,-2.86
2023-03-29T04:11:18.058Z,-2.86
2023-03-29T04:13:46.199Z,-2.87
2023-03-29T04:16:13.770Z,-2.90
2023-03-29T04:18:41.531Z,-2.90
2023-03-29T04:21:09.154Z,-2.92
2023-03-29T04:23:36.657Z,-2.93
2023-03-29T04:26:04.566Z,-2.94
2023-03-29T04:28:32.905Z,-2.94
2023-03-29T04:31:01.747Z,-2.94
2023-03-29T04:33:29.581Z,-2.93
2023-03-29T04:35:57.498Z,-2.93
2023-03-29T04:38:26.519Z,-2.94
2023-03-29T04:40:55.604Z,-2.94
2023-03-29T04:43:23.594Z,-2.93
2023-03-29T04:45:51.358Z,-2.91
2023-03-29T04:48:18.984Z,-2.89
2023-03-29T04:50:47.431Z,-2.87
2023-03-29T04:53:14.932Z,-2.85
2023-03-29T04:55:42.626Z,-2.81
2023-03-29T04:58:10.148Z,-2.79
2023-03-29T05:00:37.899Z,-2.77
2023-03-29T05:03:06.831Z,-2.70
2023-03-29T05:05:35.359Z,-2.66
2023-03-29T05:08:03.487Z,-2.63
2023-03-29T05:10:31.253Z,-2.59
2023-03-29T05:12:58.756Z,-2.55
2023-03-29T05:15:26.515Z,-2.53
2023-03-29T05:17:54.314Z,-2.50
2023-03-29T05:20:22.185Z,-2.45
2023-03-29T05:22:49.690Z,-2.42
2023-03-29T05:25:18.793Z,-2.39
2023-03-29T05:27:46.479Z,-2.36
2023-03-29T05:30:18.115Z,-2.34
2023-03-29T05:32:48.351Z,-2.31
2023-03-29T05:35:16.226Z,-2.31
2023-03-29T05:37:43.855Z,-2.30
2023-03-29T05:40:14.631Z,-2.27
2023-03-29T05:42:42.234Z,-2.25
2023-03-29T05:45:11.429Z,-2.24
2023-03-29T05:47:38.966Z,-2.21
2023-03-29T05:50:09.744Z,-2.19
2023-03-29T05:52:38.730Z,-2.16
2023-03-29T05:55:07.356Z,-2.12
2023-03-29T05:57:37.549Z,-2.05
2023-03-29T06:00:25.098Z,-1.99
2023-03-29T06:02:53.849Z,-1.92
2023-03-29T06:05:21.527Z,-1.86
2023-03-29T06:07:50.029Z,-1.81
2023-03-29T06:10:19.673Z,-1.76
2023-03-29T06:12:49.319Z,-1.72
2023-03-29T06:15:17.657Z,-1.67
2023-03-29T06:17:46.053Z,-1.61
2023-03-29T06:20:14.769Z,-1.55
2023-03-29T06:22:42.431Z,-1.50
2023-03-29T06:25:15.177Z,-1.42
2023-03-29T06:27:42.924Z,-1.34
2023-03-29T06:30:12.257Z,-1.26
2023-03-29T06:32:40.183Z,-1.18
2023-03-29T06:35:09.117Z,-1.11
2023-03-29T06:37:40.271Z,-1.04
2023-03-29T06:40:09.989Z,-0.94
2023-03-29T06:42:37.746Z,-0.84
2023-03-29T06:45:06.411Z,-0.75
2023-03-29T06:47:34.114Z,-0.66
2023-03-29T06:50:01.768Z,-0.58
2023-03-29T06:52:29.405Z,-0.50
2023-03-29T06:54:57.343Z,-0.42
2023-03-29T06:57:25.374Z,-0.36
2023-03-29T06:59:54.116Z,-0.31
2023-03-29T07:02:22.624Z,-0.23
2023-03-29T07:04:50.454Z,-0.12
2023-03-29T07:07:21.989Z,-0.02
2023-03-29T07:09:53.950Z,0.08
2023-03-29T07:12:22.986Z,0.17
2023-03-29T07:14:50.625Z,0.23
2023-03-29T07:17:23.010Z,0.32
2023-03-29T07:19:51.431Z,0.42
2023-03-29T07:22:19.690Z,0.53
2023-03-29T07:24:49.327Z,0.64
2023-03-29T07:27:18.085Z,0.76
2023-03-29T07:29:46.621Z,0.86
2023-03-29T07:32:14.316Z,0.93
2023-03-29T07:34:42.414Z,1.00
2023-03-29T07:37:13.292Z,1.09
2023-03-29T07:39:44.794Z,1.14
2023-03-29T07:42:12.708Z,1.21
2023-03-29T07:44:42.440Z,1.30
2023-03-29T07:47:13.782Z,1.40
2023-03-29T07:49:42.428Z,1.50
2023-03-29T07:52:10.019Z,1.58
2023-03-29T07:54:38.537Z,1.63
2023-03-29T07:57:06.778Z,1.68
2023-03-29T07:59:34.277Z,1.73
2023-03-29T08:02:01.777Z,1.80
2023-03-29T08:04:29.627Z,1.89
2023-03-29T08:06:57.493Z,2.02
2023-03-29T08:09:25.855Z,2.16
2023-03-29T08:11:53.493Z,2.32
2023-03-29T08:14:23.715Z,2.51
2023-03-29T08:16:52.581Z,2.70
2023-03-29T08:19:20.338Z,2.89
2023-03-29T08:21:48.092Z,3.04
2023-03-29T08:24:15.980Z,3.19
2023-03-29T08:26:43.533Z,3.33
2023-03-29T08:29:11.444Z,3.45
2023-03-29T08:31:38.972Z,3.58
2023-03-29T08:34:06.988Z,3.76
2023-03-29T08:36:34.794Z,3.87
2023-03-29T08:39:03.354Z,4.02
2023-03-29T08:42:05.630Z,4.15
2023-03-29T08:45:03.711Z,4.28
2023-03-29T08:48:13.577Z,4.34
2023-03-29T08:50:50.339Z,4.51
2023-03-29T08:53:45.184Z,4.59
2023-03-29T08:56:18.554Z,4.53
2023-03-29T08:58:48.110Z,4.64
2023-03-29T09:01:16.461Z,4.78
2023-03-29T09:03:50.528Z,5.00
2023-03-29T09:06:24.264Z,5.15
2023-03-29T09:08:53.481Z,5.27
2023-03-29T09:11:30.197Z,5.41
2023-03-29T09:14:25.210Z,5.52
2023-03-29T09:17:10.022Z,5.69
2023-03-29T09:20:12.373Z,5.91
2023-03-29T09:23:13.922Z,6.10
2023-03-29T09:25:54.051Z,6.19
2023-03-29T09:28:31.214Z,6.31
2023-03-29T09:31:14.577Z,6.44
2023-03-29T09:33:49.117Z,6.64
2023-03-29T09:36:24.761Z,6.84
2023-03-29T09:38:54.455Z,6.88
2023-03-29T09:41:36.462Z,7.02
2023-03-29T09:46:55.896Z,7.23
2023-03-29T09:49:29.084Z,7.33
2023-03-29T09:52:04.829Z,7.47
2023-03-29T09:54:32.762Z,7.68
2023-03-29T09:57:01.109Z,7.65
2023-03-29T09:59:29.097Z,7.56
2023-03-29T10:02:07.769Z,7.61
2023-03-29T10:04:36.894Z,7.89
2023-03-29T10:07:07.920Z,8.19
2023-03-29T10:09:35.871Z,8.44
2023-03-29T10:12:08.049Z,8.71
2023-03-29T10:14:53.991Z,8.90
2023-03-29T10:17:26.102Z,9.07
2023-03-29T10:20:03.954Z,9.18
2023-03-29T10:22:38.384Z,9.19
2023-03-29T10:25:15.890Z,9.37
2023-03-29T10:27:47.970Z,9.53
2023-03-29T10:30:24.266Z,9.72
2023-03-29T10:32:56.828Z,9.78
2023-03-29T10:35:39.953Z,9.73
2023-03-29T10:38:14.945Z,9.87
2023-03-29T10:40:51.810Z,9.64
2023-03-29T10:43:29.777Z,9.52
2023-03-29T10:46:19.728Z,9.73
2023-03-29T10:48:50.531Z,9.93
2023-03-29T10:51:19.893Z,10.07
2023-03-29T10:53:47.586Z,10.23
2023-03-29T10:56:47.042Z,10.34
2023-03-29T10:59:32.680Z,10.61
2023-03-29T11:02:24.587Z,10.64
2023-03-29T11:05:24.945Z,10.75
2023-03-29T11:08:08.694Z,10.93
2023-03-29T11:10:46.064Z,11.04
2023-03-29T11:13:46.439Z,11.14
2023-03-29T11:16:39.425Z,11.08
2023-03-29T11:19:38.858Z,11.01
2023-03-29T11:22:26.621Z,11.05
2023-03-29T11:25:12.396Z,11.38
2023-03-29T11:28:05.104Z,11.79
2023-03-29T11:30:48.776Z,11.99
2023-03-29T11:33:19.408Z,12.07
2023-03-29T11:36:25.875Z,12.28
2023-03-29T11:38:59.346Z,12.58
2023-03-29T11:41:32.071Z,12.85
2023-03-29T11:44:09.258Z,12.86
2023-03-29T11:46:46.873Z,12.81
2023-03-29T11:49:41.962Z,12.93
2023-03-29T11:52:33.681Z,12.86
2023-03-29T11:55:19.195Z,12.96
2023-03-29T11:58:04.786Z,13.01
2023-03-29T12:00:41.073Z,13.17
2023-03-29T12:03:32.448Z,13.43
2023-03-29T12:06:25.462Z,13.77
2023-03-29T12:09:02.686Z,14.09
2023-03-29T12:11:49.070Z,14.08
2023-03-29T12:14:39.261Z,14.03
2023-03-29T12:17:15.091Z,14.00
2023-03-29T12:19:54.540Z,13.84
2023-03-29T12:22:22.612Z,13.91
2023-03-29T12:24:54.717Z,14.03
2023-03-29T12:27:27.089Z,13.98
2023-03-29T12:30:27.185Z,13.98
2023-03-29T12:33:03.975Z,14.41
2023-03-29T12:35:40.606Z,14.96
2023-03-29T12:38:31.276Z,15.41
2023-03-29T12:41:25.410Z,15.52
2023-03-29T12:43:53.626Z,15.65
2023-03-29T12:46:27.054Z,15.64
2023-03-29T12:48:58.173Z,15.64
2023-03-29T12:51:35.997Z,15.92
2023-03-29T12:54:13.918Z,16.38
2023-03-29T12:56:58.610Z,16.73
2023-03-29T12:59:47.830Z,17.12
2023-03-29T13:02:15.496Z,17.74
2023-03-29T13:04:43.646Z,18.21
2023-03-29T13:07:28.464Z,18.34
2023-03-29T13:09:57.958Z,18.30
2023-03-29T13:12:45.789Z,18.64
2023-03-29T13:15:19.472Z,18.70
2023-03-29T13:18:16.134Z,18.43
2023-03-29T13:20:46.760Z,17.93
2023-03-29T13:23:27.388Z,17.69
2023-03-29T13:26:27.284Z,17.91
2023-03-29T13:29:20.013Z,18.01
2023-03-29T13:32:01.741Z,17.63
2023-03-29T13:34:53.675Z,17.34
2023-03-29T13:37:24.567Z,16.93
2023-03-29T13:39:54.965Z,16.34
2023-03-29T13:42:40.992Z,15.50
2023-03-29T13:45:30.010Z,14.63
2023-03-29T13:48:20.566Z,13.86
2023-03-29T13:51:18.693Z,13.43
2023-03-29T13:53:53.129Z,12.99
2023-03-29T13:56:30.934Z,12.64
2023-03-29T13:59:18.831Z,12.50
2023-03-29T14:01:53.468Z,12.33
2023-03-29T14:04:25.761Z,12.05
2023-03-29T14:06:57.467Z,11.84
2023-03-29T14:09:30.321Z,11.81
2023-03-29T14:12:01.713Z,11.80
2023-03-29T14:14:32.754Z,11.79
2023-03-29T14:17:01.514Z,11.82
2023-03-29T14:19:39.036Z,11.85
2023-03-29T14:22:18.838Z,11.93
2023-03-29T14:24:58.814Z,12.06
2023-03-29T14:27:32.267Z,12.22
2023-03-29T14:30:00.708Z,12.76
2023-03-29T14:32:32.251Z,13.21
2023-03-29T14:35:01.051Z,13.52
2023-03-29T14:37:29.774Z,13.63
2023-03-29T14:39:59.500Z,14.05
2023-03-29T14:42:29.217Z,14.40
2023-03-29T14:45:04.507Z,14.22
2023-03-29T14:47:34.686Z,14.21
2023-03-29T14:50:04.708Z,14.00
2023-03-29T14:52:33.509Z,13.67
2023-03-29T14:55:04.022Z,13.47
2023-03-29T14:57:38.259Z,13.38
2023-03-29T15:00:22.715Z,13.28
2023-03-29T15:03:01.742Z,13.25
2023-03-29T15:05:38.156Z,13.41
2023-03-29T15:08:11.868Z,13.79
2023-03-29T15:10:42.949Z,14.27
2023-03-29T15:13:20.021Z,14.72
2023-03-29T15:15:52.431Z,15.38
2023-03-29T15:18:25.242Z,16.10
2023-03-29T15:20:53.010Z,16.80
2023-03-29T15:23:23.791Z,17.08
2023-03-29T15:25:58.792Z,16.84
2023-03-29T15:28:31.173Z,16.67
2023-03-29T15:31:07.962Z,16.19
2023-03-29T15:33:39.371Z,15.48
2023-03-29T15:36:20.276Z,14.65
2023-03-29T15:38:49.729Z,13.95
2023-03-29T15:41:17.272Z,13.42
2023-03-29T15:43:44.781Z,12.98
2023-03-29T15:46:13.876Z,12.55
2023-03-29T15:48:42.173Z,12.15
2023-03-29T15:51:13.396Z,11.75
2023-03-29T15:53:41.441Z,11.41
2023-03-29T15:56:13.255Z,11.13
2023-03-29T15:58:41.055Z,10.91
2023-03-29T16:01:23.665Z,10.73
2023-03-29T16:03:51.884Z,10.55
2023-03-29T16:06:22.018Z,10.40
2023-03-29T16:08:49.541Z,10.27
2023-03-29T16:11:17.372Z,10.17
2023-03-29T16:13:45.123Z,10.04
2023-03-29T16:16:12.770Z,9.96
2023-03-29T16:18:41.215Z,9.96
2023-03-29T16:21:14.322Z,9.98
2023-03-29T16:23:42.932Z,10.04
2023-03-29T16:26:12.733Z,10.06
2023-03-29T16:28:41.241Z,9.98
2023-03-29T16:31:13.273Z,9.92
2023-03-29T16:33:41.325Z,9.81
2023-03-29T16:36:10.009Z,9.67
2023-03-29T16:38:38.342Z,9.55
2023-03-29T16:41:07.110Z,9.44
2023-03-29T16:43:35.298Z,9.33
2023-03-29T16:46:03.875Z,9.22
2023-03-29T16:48:32.002Z,9.09
2023-03-29T16:50:59.717Z,8.98
2023-03-29T16:53:28.398Z,8.86
2023-03-29T16:55:57.330Z,8.75
2023-03-29T16:58:24.894Z,8.65
2023-03-29T17:00:53.551Z,8.54
2023-03-29T17:03:21.173Z,8.44
2023-03-29T17:05:50.610Z,8.33
2023-03-29T17:08:18.805Z,8.22
2023-03-29T17:10:47.254Z,8.11
2023-03-29T17:13:14.776Z,8.01
2023-03-29T17:15:42.447Z,7.92
2023-03-29T17:18:10.091Z,7.82
2023-03-29T17:20:40.875Z,7.74
2023-03-29T17:23:09.731Z,7.66
2023-03-29T17:25:37.535Z,7.58
2023-03-29T17:28:05.018Z,7.50
2023-03-29T17:30:35.022Z,7.44
2023-03-29T17:33:03.961Z,7.37
2023-03-29T17:35:32.057Z,7.30
2023-03-29T17:38:00.455Z,7.25
2023-03-29T17:40:28.149Z,7.21
2023-03-29T17:42:56.136Z,7.17
2023-03-29T17:45:24.153Z,7.14
2023-03-29T17:47:51.840Z,7.10
2023-03-29T17:50:19.623Z,7.06
2023-03-29T17:52:47.749Z,7.01
2023-03-29T17:55:15.646Z,6.97
2023-03-29T17:57:43.818Z,6.95
2023-03-29T18:00:13.892Z,6.93
2023-03-29T18:02:41.933Z,6.89
2023-03-29T18:05:12.256Z,6.85
2023-03-29T18:07:40.553Z,6.80
2023-03-29T18:10:08.465Z,6.76
2023-03-29T18:12:36.939Z,6.73
2023-03-29T18:15:08.972Z,6.72
2023-03-29T18:17:37.156Z,6.70
2023-03-29T18:20:11.090Z,6.68
2023-03-29T18:22:42.074Z,6.65
2023-03-29T18:25:11.257Z,6.62
2023-03-29T18:27:39.720Z,6.59
2023-03-29T18:30:08.766Z,6.57
2023-03-29T18:32:36.898Z,6.55
2023-03-29T18:35:07.257Z,6.53
2023-03-29T18:37:34.827Z,6.52
2023-03-29T18:40:02.414Z,6.50
2023-03-29T18:42:30.914Z,6.49
2023-03-29T18:44:58.720Z,6.48
2023-03-29T18:47:27.069Z,6.46
2023-03-29T18:49:54.755Z,6.44
2023-03-29T18:52:23.404Z,6.43
2023-03-29T18:54:51.396Z,6.41
2023-03-29T18:57:19.457Z,6.40
2023-03-29T18:59:47.362Z,6.38
2023-03-29T19:02:15.611Z,6.37
2023-03-29T19:04:43.402Z,6.35
2023-03-29T19:07:10.991Z,6.32
2023-03-29T19:09:38.849Z,6.31
2023-03-29T19:12:06.650Z,6.29
2023-03-29T19:14:34.202Z,6.26
2023-03-29T19:17:01.754Z,6.21
2023-03-29T19:19:29.490Z,6.18
2023-03-29T19:22:00.277Z,6.15
2023-03-29T19:24:28.374Z,6.12
2023-03-29T19:26:56.473Z,6.07
2023-03-29T19:29:24.469Z,6.02
2023-03-29T19:31:55.014Z,5.98
2023-03-29T19:34:24.308Z,5.94
2023-03-29T19:36:53.785Z,5.90
2023-03-29T19:39:22.296Z,5.86
2023-03-29T19:41:49.893Z,5.81
2023-03-29T19:44:17.440Z,5.76
2023-03-29T19:46:44.960Z,5.71
2023-03-29T19:49:13.665Z,5.68
2023-03-29T19:51:43.070Z,5.66
2023-03-29T19:54:13.193Z,5.64
2023-03-29T19:56:42.503Z,5.63
2023-03-29T19:59:11.010Z,5.61
2023-03-29T20:01:42.667Z,5.61
2023-03-29T20:04:11.803Z,5.62
2023-03-29T20:06:40.224Z,5.63
2023-03-29T20:09:08.767Z,5.62
2023-03-29T20:11:36.422Z,5.63
2023-03-29T20:14:04.912Z,5.63
2023-03-29T20:16:35.871Z,5.64
2023-03-29T20:19:08.153Z,5.63
2023-03-29T20:21:38.710Z,5.65
2023-03-29T20:24:08.545Z,5.64
2023-03-29T20:26:37.019Z,5.63
2023-03-29T20:29:04.619Z,5.64
2023-03-29T20:31:32.323Z,5.64
2023-03-29T20:34:00.869Z,5.64
2023-03-29T20:36:30.349Z,5.62
2023-03-29T20:38:59.228Z,5.61
2023-03-29T20:41:27.081Z,5.61
2023-03-29T20:43:58.430Z,5.61
2023-03-29T20:46:33.372Z,5.59
2023-03-29T20:49:04.371Z,5.58
2023-03-29T20:51:32.218Z,5.56
2023-03-29T20:54:04.834Z,5.56
2023-03-29T20:56:38.541Z,5.55
2023-03-29T20:59:10.397Z,5.54
2023-03-29T21:01:41.294Z,5.54
2023-03-29T21:04:10.546Z,5.53
2023-03-29T21:06:41.367Z,5.52
2023-03-29T21:09:08.883Z,5.51
2023-03-29T21:11:36.439Z,5.51
2023-03-29T21:14:04.410Z,5.50
2023-03-29T21:16:31.994Z,5.48
2023-03-29T21:18:59.691Z,5.49
2023-03-29T21:21:29.433Z,5.49
2023-03-29T21:23:57.040Z,5.50
2023-03-29T21:26:24.584Z,5.50
2023-03-29T21:28:52.141Z,5.52
2023-03-29T21:31:19.782Z,5.54
2023-03-29T21:33:47.381Z,5.55
2023-03-29T21:36:15.266Z,5.55
2023-03-29T21:38:42.821Z,5.54
2023-03-29T21:41:12.183Z,5.53
2023-03-29T21:43:40.286Z,5.51
2023-03-29T21:46:07.994Z,5.49
2023-03-29T21:48:36.020Z,5.47
2023-03-29T21:51:04.146Z,5.46
2023-03-29T21:53:31.885Z,5.44
2023-03-29T21:55:59.677Z,5.44
2023-03-29T21:58:27.293Z,5.44
2023-03-29T22:00:56.888Z,5.45
2023-03-29T22:03:25.497Z,5.45
2023-03-29T22:06:02.585Z,5.45
2023-03-29T22:08:30.788Z,5.45
2023-03-29T22:11:08.282Z,5.46
2023-03-29T22:13:36.641Z,5.47
2023-03-29T22:16:05.054Z,5.47
2023-03-29T22:18:43.754Z,5.47
2023-03-29T22:21:15.207Z,5.47
2023-03-29T22:23:45.801Z,5.47
2023-03-29T22:26:15.647Z,5.47
2023-03-29T22:28:43.468Z,5.47
2023-03-29T22:31:14.453Z,5.48
2023-03-29T22:33:42.501Z,5.49
2023-03-29T22:36:17.314Z,5.50
2023-03-29T22:38:46.731Z,5.50
2023-03-29T22:41:15.777Z,5.51
2023-03-29T22:43:43.694Z,5.52
2023-03-29T22:46:13.834Z,5.54
2023-03-29T22:48:41.639Z,5.54
2023-03-29T22:51:09.130Z,5.54
2023-03-29T22:53:36.934Z,5.54
2023-03-29T22:56:06.928Z,5.53
2023-03-29T22:58:36.208Z,5.53
2023-03-29T23:01:05.705Z,5.52
2023-03-29T23:03:34.209Z,5.52
2023-03-29T23:06:04.608Z,5.51
2023-03-29T23:08:34.211Z,5.50
2023-03-29T23:11:02.448Z,5.48
2023-03-29T23:13:30.662Z,5.46
2023-03-29T23:16:00.452Z,5.45
2023-03-29T23:18:30.580Z,5.45
2023-03-29T23:20:59.079Z,5.45
2023-03-29T23:23:28.425Z,5.43
2023-03-29T23:25:57.793Z,5.41
2023-03-29T23:28:30.109Z,5.40
2023-03-29T23:31:00.518Z,5.40
2023-03-29T23:33:33.107Z,5.41
2023-03-29T23:36:04.303Z,5.40
2023-03-29T23:38:34.136Z,5.40
2023-03-29T23:41:06.802Z,5.39
2023-03-29T23:43:40.247Z,5.39
2023-03-29T23:46:13.266Z,5.39
2023-03-29T23:48:45.690Z,5.39
2023-03-29T23:51:13.560Z,5.39
2023-03-29T23:53:41.445Z,5.39
2023-03-29T23:56:09.468Z,5.39
2023-03-29T23:58:38.004Z,5.38
